Time;durP1;ratioP1;P1;durP2;ratioP2;P2;SDS_P1;SDS_P2;PMS_P1;PMS_P2;Temp;Humidity;BMP_temperature;BMP_pressure;BME280_temperature;BME280_humidity;BME280_pressure;Samples;Min_cycle;Max_cycle;Signal;HPM_P1;HPM_P2
2020/12/10 00:01:01;;;;;;;20.70;9.57;;;-1.20;67.00;;;;;;5097168;28;20033;-42
2020/12/10 00:03:27;;;;;;;19.35;9.52;;;-1.20;67.00;;;;;;5096424;28;20416;-42
2020/12/10 00:05:52;;;;;;;21.15;10.40;;;-1.20;67.00;;;;;;5100521;28;20039;-42
2020/12/10 00:08:18;;;;;;;22.38;11.90;;;-1.10;66.90;;;;;;5100492;28;20032;-43
2020/12/10 00:10:44;;;;;;;21.48;10.50;;;-1.10;66.80;;;;;;5100676;28;20016;-43
2020/12/10 00:13:10;;;;;;;35.13;13.77;;;-1.10;66.80;;;;;;5100353;28;20249;-42
2020/12/10 00:15:35;;;;;;;28.70;12.93;;;-1.10;66.90;;;;;;5100326;28;20024;-42
2020/12/10 00:18:01;;;;;;;21.83;10.30;;;-1.10;67.00;;;;;;5100299;28;20078;-42
2020/12/10 00:20:27;;;;;;;17.85;9.93;;;-1.10;67.00;;;;;;5099735;28;20421;-42
2020/12/10 00:22:53;;;;;;;17.48;9.27;;;-1.10;67.00;;;;;;5100257;28;20032;-43
2020/12/10 00:25:18;;;;;;;19.73;9.73;;;-1.00;67.10;;;;;;5100498;28;20313;-43
2020/12/10 00:27:44;;;;;;;20.05;9.75;;;-1.00;67.10;;;;;;5099522;28;20027;-42
2020/12/10 00:30:10;;;;;;;19.05;9.30;;;-1.00;67.10;;;;;;5099928;28;20040;-42
2020/12/10 00:32:37;;;;;;;18.23;10.05;;;-0.90;67.30;;;;;;5099994;28;20036;-42
2020/12/10 00:35:05;;;;;;;21.05;10.43;;;-0.90;67.30;;;;;;5099558;28;20076;-43
2020/12/10 00:37:33;;;;;;;14.93;9.45;;;-0.90;67.40;;;;;;5099940;28;20103;-42
2020/12/10 00:39:59;;;;;;;20.70;9.93;;;-0.90;67.50;;;;;;5099914;28;20084;-42
2020/12/10 00:42:24;;;;;;;24.15;11.45;;;-0.80;67.60;;;;;;5099238;28;20103;-42
2020/12/10 00:44:50;;;;;;;19.85;10.13;;;-0.80;68.10;;;;;;5099777;28;20016;-42
2020/12/10 00:47:17;;;;;;;20.08;9.75;;;-0.80;67.50;;;;;;5100044;28;20206;-43
2020/12/10 00:49:43;;;;;;;18.45;9.40;;;-0.80;67.40;;;;;;5099427;28;20345;-43
2020/12/10 00:52:09;;;;;;;20.30;10.15;;;-0.80;67.40;;;;;;5099294;28;20035;-42
2020/12/10 00:54:35;;;;;;;18.13;10.23;;;-0.80;67.40;;;;;;5099571;28;20027;-42
2020/12/10 00:57:00;;;;;;;21.95;11.52;;;-0.70;67.60;;;;;;5099571;28;20160;-42
2020/12/10 00:59:26;;;;;;;22.27;10.52;;;-0.70;67.70;;;;;;5099291;28;20020;-42
2020/12/10 01:01:52;;;;;;;21.30;10.02;;;-0.70;67.70;;;;;;5099990;28;20092;-42
2020/12/10 01:04:17;;;;;;;21.33;10.68;;;-0.70;67.70;;;;;;5098870;28;20475;-42
2020/12/10 01:06:46;;;;;;;23.42;10.88;;;-0.70;67.60;;;;;;5099829;28;20024;-42
2020/12/10 01:09:11;;;;;;;20.30;10.52;;;-0.70;67.40;;;;;;5099655;28;20379;-42
2020/12/10 01:11:37;;;;;;;22.23;10.82;;;-0.70;67.30;;;;;;5099402;28;20040;-42
2020/12/10 01:14:04;;;;;;;21.38;11.45;;;-0.70;67.30;;;;;;5099274;28;20024;-42
2020/12/10 01:16:30;;;;;;;21.42;11.27;;;-0.70;67.30;;;;;;5098855;28;20051;-42
2020/12/10 01:18:56;;;;;;;19.05;11.35;;;-0.70;67.40;;;;;;5099166;28;20024;-42
2020/12/10 01:21:33;;;;;;;21.80;11.55;;;-0.70;67.40;;;;;;5099258;28;20031;-42
2020/12/10 01:24:00;;;;;;;24.95;12.00;;;-0.70;67.50;;;;;;5099118;28;20020;-42
2020/12/10 01:26:29;;;;;;;20.27;10.32;;;-0.70;67.50;;;;;;5099329;28;20077;-43
2020/12/10 01:28:55;;;;;;;22.60;11.38;;;-0.70;67.50;;;;;;5098996;28;20031;-42
2020/12/10 01:31:21;;;;;;;21.77;10.80;;;-0.60;67.50;;;;;;5098450;28;20123;-42
2020/12/10 01:33:47;;;;;;;22.63;11.25;;;-0.60;67.50;;;;;;5098869;28;20114;-42
2020/12/10 01:36:23;;;;;;;25.40;11.20;;;-0.60;67.60;;;;;;5098922;28;20108;-42
2020/12/10 01:38:50;;;;;;;25.85;11.35;;;-0.60;67.70;;;;;;5098788;28;20050;-42
2020/12/10 01:41:16;;;;;;;21.95;10.52;;;-0.60;67.80;;;;;;5098792;28;20088;-43
2020/12/10 01:43:42;;;;;;;28.73;12.35;;;-0.60;67.80;;;;;;5098903;28;20334;-42
2020/12/10 01:46:08;;;;;;;21.98;11.10;;;-0.50;68.00;;;;;;5098671;28;20020;-42
2020/12/10 01:48:34;;;;;;;19.00;10.50;;;-0.50;68.00;;;;;;5098243;28;20020;-42
2020/12/10 01:51:01;;;;;;;21.23;11.02;;;-0.50;67.90;;;;;;5098381;28;20448;-42
2020/12/10 01:53:26;;;;;;;24.92;11.35;;;-0.50;67.60;;;;;;5098203;28;20124;-42
2020/12/10 01:55:52;;;;;;;19.20;10.48;;;-0.50;67.50;;;;;;5098481;28;20020;-42
2020/12/10 01:58:18;;;;;;;19.38;10.45;;;-0.60;67.30;;;;;;5098137;28;20338;-42
2020/12/10 02:00:44;;;;;;;19.98;10.25;;;-0.60;67.20;;;;;;5098606;28;20042;-42
2020/12/10 02:03:10;;;;;;;21.65;10.52;;;-0.60;67.10;;;;;;5098281;28;20028;-42
2020/12/10 02:05:46;;;;;;;20.83;10.40;;;-0.60;67.00;;;;;;5098097;28;20111;-42
2020/12/10 02:08:12;;;;;;;20.75;10.10;;;-0.70;66.80;;;;;;5097890;28;20035;-42
2020/12/10 02:10:38;;;;;;;19.70;10.60;;;-0.80;66.70;;;;;;5098405;28;20028;-42
2020/12/10 02:13:04;;;;;;;22.55;11.02;;;-0.80;66.80;;;;;;5097501;28;20144;-43
2020/12/10 02:15:33;;;;;;;24.25;10.95;;;-0.80;67.00;;;;;;5097632;28;20020;-42
2020/12/10 02:18:04;;;;;;;23.38;11.43;;;-0.90;67.20;;;;;;5098006;28;20323;-42
2020/12/10 02:20:30;;;;;;;22.90;10.88;;;-0.90;67.40;;;;;;5097767;28;20115;-42
2020/12/10 02:23:03;;;;;;;25.73;11.60;;;-0.90;67.30;;;;;;5097940;28;20056;-42
2020/12/10 02:25:30;;;;;;;21.67;9.73;;;-0.90;67.30;;;;;;5098002;28;20089;-42
2020/12/10 02:28:01;;;;;;;20.83;10.43;;;-0.90;67.40;;;;;;5097256;28;20024;-42
2020/12/10 02:30:27;;;;;;;19.65;10.50;;;-0.90;67.60;;;;;;5097436;28;20060;-42
2020/12/10 02:33:01;;;;;;;19.02;9.70;;;-0.90;67.60;;;;;;5097644;28;20068;-42
2020/12/10 02:35:31;;;;;;;24.23;10.88;;;-0.90;67.80;;;;;;5097798;28;20031;-42
2020/12/10 02:37:58;;;;;;;19.63;10.43;;;-0.90;67.70;;;;;;5096989;28;20131;-42
2020/12/10 02:40:27;;;;;;;17.90;9.45;;;-0.90;67.70;;;;;;5097441;28;20028;-42
2020/12/10 02:42:52;;;;;;;23.42;10.57;;;-0.90;67.60;;;;;;5097545;28;20024;-42
2020/12/10 02:45:21;;;;;;;20.95;10.60;;;-0.90;67.60;;;;;;5097546;28;20020;-42
2020/12/10 02:47:47;;;;;;;23.48;11.88;;;-0.90;67.50;;;;;;5097677;28;20020;-42
2020/12/10 02:50:14;;;;;;;20.08;10.80;;;-0.90;67.60;;;;;;5097472;28;20028;-42
2020/12/10 02:52:39;;;;;;;24.33;10.93;;;-0.90;67.50;;;;;;5096747;28;20051;-43
2020/12/10 02:55:05;;;;;;;19.80;11.73;;;-0.90;67.50;;;;;;5097119;28;20024;-42
2020/12/10 02:57:31;;;;;;;23.63;11.55;;;-0.90;67.50;;;;;;5097273;28;20036;-42
2020/12/10 02:59:56;;;;;;;23.13;10.13;;;-0.80;67.60;;;;;;5097316;28;20028;-42
2020/12/10 03:02:22;;;;;;;23.85;10.45;;;-0.90;67.60;;;;;;5096675;28;20035;-43
2020/12/10 03:04:48;;;;;;;21.60;9.80;;;-0.90;67.50;;;;;;5097011;28;20056;-43
2020/12/10 03:07:15;;;;;;;20.75;9.55;;;-0.90;67.50;;;;;;5096865;28;20039;-42
2020/12/10 03:09:42;;;;;;;21.75;10.45;;;-0.90;67.60;;;;;;5097555;28;20302;-42
2020/12/10 03:12:08;;;;;;;19.25;10.38;;;-0.90;67.50;;;;;;5096727;28;20366;-42
2020/12/10 03:14:34;;;;;;;20.95;10.32;;;-0.80;67.60;;;;;;5096673;28;20028;-42
2020/12/10 03:16:59;;;;;;;24.30;11.05;;;-0.80;67.70;;;;;;5096668;28;20338;-43
2020/12/10 03:19:25;;;;;;;24.73;10.98;;;-0.80;67.90;;;;;;5096885;28;20028;-42
2020/12/10 03:21:51;;;;;;;23.40;11.70;;;-0.80;67.80;;;;;;5097051;28;20043;-42
2020/12/10 03:24:17;;;;;;;23.35;12.27;;;-0.80;67.70;;;;;;5096602;28;20028;-42
2020/12/10 03:26:42;;;;;;;22.90;11.48;;;-0.90;67.50;;;;;;5097304;28;20024;-42
2020/12/10 03:29:09;;;;;;;20.13;11.10;;;-0.80;67.70;;;;;;5096521;28;20316;-42
2020/12/10 03:31:36;;;;;;;22.15;10.77;;;-0.90;68.30;;;;;;5096524;28;20388;-42
2020/12/10 03:34:04;;;;;;;19.40;10.52;;;-0.90;67.90;;;;;;5096460;28;20066;-42
2020/12/10 03:36:50;;;;;;;21.92;11.38;;;-0.90;68.00;;;;;;5096796;28;20064;-42
2020/12/10 03:39:18;;;;;;;23.65;9.35;;;-0.90;68.00;;;;;;5096468;28;20326;-42
2020/12/10 03:41:45;;;;;;;22.27;10.65;;;-0.90;68.10;;;;;;5096765;28;20031;-42
2020/12/10 03:44:11;;;;;;;23.42;10.68;;;-0.90;68.30;;;;;;5096585;28;20345;-42
2020/12/10 03:46:38;;;;;;;24.67;10.52;;;-0.90;68.20;;;;;;5096180;28;20512;-42
2020/12/10 03:49:05;;;;;;;25.30;11.93;;;-0.90;68.30;;;;;;5096038;28;20093;-43
2020/12/10 03:51:30;;;;;;;21.88;10.75;;;-0.90;68.20;;;;;;5096646;28;20028;-42
2020/12/10 03:53:56;;;;;;;19.85;10.05;;;-0.90;68.10;;;;;;5095966;28;20073;-42
2020/12/10 03:56:22;;;;;;;24.17;11.88;;;-0.90;68.00;;;;;;5096769;28;20032;-42
2020/12/10 03:58:48;;;;;;;21.50;10.85;;;-0.90;67.90;;;;;;5096422;28;20170;-43
2020/12/10 04:01:13;;;;;;;22.77;10.50;;;-0.90;67.70;;;;;;5115092;28;20159;-42
2020/12/10 04:03:39;;;;;;;20.33;10.52;;;-0.90;67.50;;;;;;5116866;28;20023;-42
2020/12/10 04:06:05;;;;;;;24.63;10.82;;;-0.90;67.50;;;;;;5116188;28;20031;-42
2020/12/10 04:08:31;;;;;;;22.75;11.50;;;-1.00;67.30;;;;;;5115257;28;20028;-42
2020/12/10 04:10:57;;;;;;;19.70;11.00;;;-1.00;67.80;;;;;;5116683;28;20023;-42
2020/12/10 04:13:22;;;;;;;28.40;11.63;;;-1.10;67.10;;;;;;5116329;28;20441;-42
2020/12/10 04:15:48;;;;;;;21.02;11.30;;;-1.20;67.10;;;;;;5115840;28;20378;-42
2020/12/10 04:18:14;;;;;;;23.35;11.68;;;-1.20;67.10;;;;;;5115769;28;20062;-43
2020/12/10 04:20:39;;;;;;;30.63;13.43;;;-1.30;67.10;;;;;;5116374;28;20020;-42
2020/12/10 04:23:05;;;;;;;20.38;10.45;;;-1.30;67.20;;;;;;5116363;28;20063;-42
2020/12/10 04:25:31;;;;;;;20.38;11.40;;;-1.40;67.30;;;;;;5116701;28;20356;-42
2020/12/10 04:27:56;;;;;;;27.02;11.82;;;-1.40;67.40;;;;;;5116390;28;20023;-43
2020/12/10 04:30:22;;;;;;;25.05;11.73;;;-1.50;67.50;;;;;;5116047;28;20063;-42
2020/12/10 04:32:48;;;;;;;25.92;12.88;;;-1.60;67.50;;;;;;5116451;28;20039;-42
2020/12/10 04:35:14;;;;;;;24.63;12.30;;;-1.60;67.60;;;;;;5116837;28;20027;-42
2020/12/10 04:37:41;;;;;;;22.80;11.20;;;-1.60;67.70;;;;;;5116382;28;20038;-42
2020/12/10 04:40:08;;;;;;;26.20;11.68;;;-1.60;67.70;;;;;;5116235;28;20080;-43
2020/12/10 04:42:34;;;;;;;21.42;11.05;;;-1.70;67.70;;;;;;5116663;28;20336;-42
2020/12/10 04:45:00;;;;;;;24.60;11.65;;;-1.70;67.70;;;;;;5115863;28;20180;-42
2020/12/10 04:47:28;;;;;;;31.70;14.63;;;-1.80;67.70;;;;;;5116306;28;20110;-43
2020/12/10 04:49:55;;;;;;;28.48;13.23;;;-1.80;67.90;;;;;;5116164;28;20057;-42
2020/12/10 04:52:22;;;;;;;34.72;14.75;;;-1.80;68.00;;;;;;5118822;28;20039;-42
2020/12/10 04:54:49;;;;;;;28.85;13.60;;;-1.90;68.10;;;;;;5120264;28;20090;-42
2020/12/10 04:57:17;;;;;;;31.65;15.35;;;-1.90;68.20;;;;;;5119791;28;20344;-42
2020/12/10 04:59:43;;;;;;;38.17;15.77;;;-1.90;68.40;;;;;;5119608;28;20446;-42
2020/12/10 05:02:13;;;;;;;33.35;14.85;;;-1.90;68.40;;;;;;5119429;28;20037;-39
2020/12/10 05:04:39;;;;;;;25.13;13.70;;;-1.90;68.60;;;;;;5118857;28;20019;-39
2020/12/10 05:07:05;;;;;;;28.08;15.20;;;-1.90;68.80;;;;;;5118040;28;20019;-39
2020/12/10 05:09:31;;;;;;;24.13;12.77;;;-1.90;69.00;;;;;;5116524;28;20016;-39
2020/12/10 05:11:57;;;;;;;28.67;13.95;;;-1.80;69.10;;;;;;5117830;28;20543;-39
2020/12/10 05:14:23;;;;;;;24.00;11.90;;;-1.80;69.10;;;;;;5117101;28;20102;-40
2020/12/10 05:17:13;;;;;;;25.13;13.20;;;-1.80;69.10;;;;;;5118394;28;20050;-39
2020/12/10 05:19:39;;;;;;;27.63;13.50;;;-1.70;69.40;;;;;;5117141;28;20393;-39
2020/12/10 05:22:06;;;;;;;26.15;13.57;;;-1.70;69.50;;;;;;5116103;28;20112;-40
2020/12/10 05:24:33;;;;;;;33.30;14.82;;;-1.60;69.60;;;;;;5116644;28;20035;-39
2020/12/10 05:27:16;;;;;;;25.83;13.45;;;-1.60;69.80;;;;;;5117462;28;20080;-39
2020/12/10 05:29:42;;;;;;;26.50;14.55;;;-1.50;70.00;;;;;;5118283;28;20035;-40
2020/12/10 05:32:09;;;;;;;43.05;21.30;;;-1.50;69.90;;;;;;5117357;28;20039;-39
2020/12/10 05:34:35;;;;;;;32.85;16.20;;;-1.40;70.00;;;;;;5117210;28;20027;-39
2020/12/10 05:37:01;;;;;;;28.58;14.57;;;-1.30;70.10;;;;;;5118705;28;20024;-40
2020/12/10 05:39:26;;;;;;;23.55;12.93;;;-1.30;70.20;;;;;;5119393;28;20325;-40
2020/12/10 05:41:54;;;;;;;29.40;15.18;;;-1.20;70.40;;;;;;5118299;28;20028;-41
2020/12/10 05:44:24;;;;;;;51.55;22.55;;;-1.20;70.80;;;;;;5118763;28;20031;-39
2020/12/10 05:47:00;;;;;;;65.28;38.60;;;-1.10;70.40;;;;;;5118396;28;20030;-39
2020/12/10 05:49:26;;;;;;;76.47;45.88;;;-1.10;70.40;;;;;;5118815;28;20368;-39
2020/12/10 05:51:52;;;;;;;47.20;23.42;;;-1.00;70.50;;;;;;5118621;28;20032;-40
2020/12/10 05:54:19;;;;;;;40.05;21.95;;;-1.00;70.50;;;;;;5118629;27;20027;-40
2020/12/10 05:57:05;;;;;;;34.35;18.20;;;-0.90;70.40;;;;;;5119007;28;20019;-39
2020/12/10 05:59:32;;;;;;;44.08;16.80;;;-0.80;70.20;;;;;;5118274;28;20038;-40
2020/12/10 06:02:01;;;;;;;32.15;17.75;;;-0.80;69.90;;;;;;5118462;28;20032;-39
2020/12/10 06:04:28;;;;;;;44.13;23.77;;;-0.70;69.80;;;;;;5118529;28;20035;-40
2020/12/10 06:06:56;;;;;;;43.40;22.38;;;-0.70;69.60;;;;;;5119074;28;20016;-39
2020/12/10 06:09:24;;;;;;;85.38;44.95;;;-0.70;69.50;;;;;;5118254;28;20031;-39
2020/12/10 06:11:59;;;;;;;58.00;31.70;;;-0.60;69.50;;;;;;5118536;28;20045;-39
2020/12/10 06:14:25;;;;;;;60.72;31.50;;;-0.60;69.50;;;;;;5118209;28;20031;-39
2020/12/10 06:17:08;;;;;;;47.10;25.73;;;-0.60;69.50;;;;;;5118621;28;20019;-39
2020/12/10 06:19:34;;;;;;;50.25;24.50;;;-0.50;69.30;;;;;;5118120;28;20425;-39
2020/12/10 06:22:26;;;;;;;55.05;28.10;;;-0.50;69.40;;;;;;5117625;28;20032;-39
2020/12/10 06:24:53;;;;;;;76.70;30.80;;;-0.50;69.50;;;;;;5117782;28;20019;-40
2020/12/10 06:27:24;;;;;;;57.63;26.35;;;-0.40;69.50;;;;;;5118013;28;20024;-39
2020/12/10 06:29:50;;;;;;;68.05;29.90;;;-0.40;69.30;;;;;;5117771;28;20035;-39
2020/12/10 06:32:17;;;;;;;68.45;31.80;;;-0.40;69.30;;;;;;5117958;28;20078;-40
2020/12/10 06:34:47;;;;;;;44.40;21.98;;;-0.30;69.30;;;;;;5117916;28;20019;-40
2020/12/10 06:37:15;;;;;;;58.22;29.95;;;-0.30;69.30;;;;;;5117418;28;20023;-39
2020/12/10 06:39:41;;;;;;;44.17;20.95;;;-0.30;69.10;;;;;;5117744;28;20016;-39
2020/12/10 06:42:07;;;;;;;35.38;17.70;;;-0.30;69.00;;;;;;5117719;28;20019;-40
2020/12/10 06:44:34;;;;;;;71.68;34.25;;;-0.20;69.00;;;;;;5116517;28;20016;-40
2020/12/10 06:47:01;;;;;;;41.30;17.58;;;-0.20;69.00;;;;;;5115973;28;20015;-40
2020/12/10 06:49:31;;;;;;;37.63;18.38;;;-0.20;69.00;;;;;;5116320;28;20114;-40
2020/12/10 06:52:10;;;;;;;39.83;19.52;;;-0.20;69.00;;;;;;5116846;28;20051;-40
2020/12/10 06:54:56;;;;;;;39.28;20.17;;;-0.20;68.90;;;;;;5115797;28;20035;-40
2020/12/10 06:57:21;;;;;;;34.65;17.77;;;-0.10;69.10;;;;;;5115560;28;20038;-39
2020/12/10 06:59:47;;;;;;;37.90;21.30;;;-0.10;69.10;;;;;;5115354;28;20032;-40
2020/12/10 07:02:16;;;;;;;39.42;18.20;;;-0.10;69.00;;;;;;5115776;28;20110;-41
2020/12/10 07:04:49;;;;;;;38.95;18.08;;;-0.10;69.10;;;;;;5115998;28;20114;-40
2020/12/10 07:07:17;;;;;;;40.63;20.08;;;0.00;69.20;;;;;;5115730;28;20140;-39
2020/12/10 07:09:54;;;;;;;35.78;17.92;;;0.00;69.30;;;;;;5115374;28;20024;-40
2020/12/10 07:12:25;;;;;;;37.13;15.80;;;0.10;69.10;;;;;;5114823;28;20039;-39
2020/12/10 07:14:51;;;;;;;;;;;0.00;69.00;;;;;;5115237;28;20580;-40
2020/12/10 07:17:18;;;;;;;32.38;16.50;;;0.10;69.00;;;;;;5115249;28;19911;-39
2020/12/10 07:19:44;;;;;;;34.13;17.80;;;0.10;69.00;;;;;;5115546;28;20020;-39
2020/12/10 07:22:11;;;;;;;34.63;16.77;;;0.10;69.20;;;;;;5115030;28;20353;-39
2020/12/10 07:24:36;;;;;;;34.95;16.55;;;0.10;69.30;;;;;;5115176;28;20047;-39
2020/12/10 07:27:03;;;;;;;49.13;23.65;;;0.10;69.30;;;;;;5115487;28;20381;-39
2020/12/10 07:29:29;;;;;;;78.82;38.83;;;0.20;69.20;;;;;;5116709;28;20041;-38
2020/12/10 07:31:55;;;;;;;72.97;37.55;;;0.10;69.10;;;;;;5116433;28;20039;-38
2020/12/10 07:34:21;;;;;;;39.78;20.33;;;0.20;69.10;;;;;;5114825;28;20051;-39
2020/12/10 07:36:50;;;;;;;34.22;16.33;;;0.20;69.10;;;;;;5109148;28;20041;-38
2020/12/10 07:39:31;;;;;;;34.33;17.23;;;0.20;69.10;;;;;;5102906;28;20073;-38
2020/12/10 07:41:58;;;;;;;36.33;16.88;;;0.20;69.10;;;;;;5096288;28;20032;-38
2020/12/10 07:44:28;;;;;;;36.72;18.08;;;0.10;69.20;;;;;;5105443;28;20035;-39
2020/12/10 07:46:54;;;;;;;36.70;16.50;;;0.20;69.40;;;;;;5108761;28;20063;-39
2020/12/10 07:49:28;;;;;;;35.97;15.70;;;0.20;69.40;;;;;;5107070;28;20042;-38
2020/12/10 07:52:03;;;;;;;33.20;17.60;;;0.20;69.60;;;;;;5116182;28;20393;-38
2020/12/10 07:54:51;;;;;;;37.42;15.63;;;0.30;69.90;;;;;;5115914;28;20054;-39
2020/12/10 07:57:42;;;;;;;37.17;17.95;;;0.30;69.80;;;;;;5106576;28;20024;-42
2020/12/10 08:00:10;;;;;;;33.22;17.20;;;0.40;69.90;;;;;;5114437;28;20031;-43
2020/12/10 08:02:41;;;;;;;35.78;17.00;;;0.50;70.00;;;;;;5114350;28;20050;-43
2020/12/10 08:05:18;;;;;;;36.08;18.20;;;0.50;70.60;;;;;;5112186;28;20423;-42
2020/12/10 08:08:02;;;;;;;40.17;20.30;;;0.60;70.10;;;;;;5114684;28;20333;-42
2020/12/10 08:10:29;;;;;;;72.20;34.63;;;0.60;70.20;;;;;;5114700;28;20100;-42
2020/12/10 08:13:15;;;;;;;40.90;20.63;;;0.70;70.10;;;;;;5114425;28;20038;-38
2020/12/10 08:15:43;;;;;;;32.55;15.75;;;0.70;69.90;;;;;;5115016;28;20309;-38
2020/12/10 08:18:13;;;;;;;31.50;14.55;;;0.70;69.70;;;;;;5115804;28;20020;-39
2020/12/10 08:20:56;;;;;;;41.60;16.55;;;0.70;69.60;;;;;;5113267;28;20020;-39
2020/12/10 08:23:22;;;;;;;38.75;19.75;;;0.70;69.90;;;;;;5116535;28;20093;-39
2020/12/10 08:26:08;;;;;;;37.97;16.20;;;0.70;69.80;;;;;;5118346;28;20364;-38
2020/12/10 08:28:34;;;;;;;42.10;19.67;;;0.70;69.80;;;;;;5113166;27;20111;-39
2020/12/10 08:30:59;;;;;;;83.45;37.20;;;0.70;69.60;;;;;;5117413;28;20138;-39
2020/12/10 08:33:36;;;;;;;122.55;48.22;;;0.70;69.70;;;;;;5118936;28;20059;-40
2020/12/10 08:36:03;;;;;;;99.68;42.42;;;0.70;69.80;;;;;;5116197;28;20050;-39
2020/12/10 08:38:28;;;;;;;62.20;26.90;;;0.60;69.70;;;;;;5118227;28;20433;-39
2020/12/10 08:40:56;;;;;;;53.85;26.13;;;0.70;69.70;;;;;;5118563;28;20032;-39
2020/12/10 08:43:21;;;;;;;54.33;25.35;;;0.70;69.70;;;;;;5116725;28;20345;-39
2020/12/10 08:45:47;;;;;;;37.33;18.15;;;0.70;69.80;;;;;;5112718;28;20035;-39
2020/12/10 08:48:17;;;;;;;46.53;25.15;;;0.70;69.70;;;;;;5117432;28;20032;-39
2020/12/10 08:50:50;;;;;;;44.63;21.50;;;0.70;69.60;;;;;;5117934;28;20084;-43
2020/12/10 08:53:16;;;;;;;60.55;24.90;;;0.70;69.70;;;;;;5117686;28;20092;-43
2020/12/10 08:55:51;;;;;;;52.13;25.00;;;0.70;69.70;;;;;;5118689;28;20371;-42
2020/12/10 08:58:34;;;;;;;47.40;23.42;;;0.60;69.70;;;;;;5117540;28;20024;-43
2020/12/10 09:01:00;;;;;;;60.03;31.83;;;0.60;70.00;;;;;;5118667;28;20016;-42
2020/12/10 09:03:26;;;;;;;50.33;22.48;;;0.60;69.70;;;;;;5118014;28;20130;-45
2020/12/10 09:05:53;;;;;;;41.75;20.17;;;0.60;69.70;;;;;;5110259;28;20130;-43
2020/12/10 09:08:19;;;;;;;47.83;19.70;;;0.50;69.80;;;;;;5117948;28;20019;-43
2020/12/10 09:10:46;;;;;;;43.25;20.38;;;0.50;69.80;;;;;;5119431;28;20431;-42
2020/12/10 09:13:11;;;;;;;50.30;23.02;;;0.50;70.00;;;;;;5119132;28;20031;-43
2020/12/10 09:15:38;;;;;;;77.43;40.80;;;0.50;70.00;;;;;;5118191;28;20050;-43
2020/12/10 09:18:03;;;;;;;55.28;26.65;;;0.50;70.00;;;;;;5118381;28;20034;-42
2020/12/10 09:20:29;;;;;;;47.35;20.50;;;0.50;70.10;;;;;;5118805;28;20023;-42
2020/12/10 09:22:55;;;;;;;43.03;19.63;;;0.50;70.20;;;;;;5118685;27;20050;-42
2020/12/10 09:25:21;;;;;;;39.97;17.42;;;0.50;70.20;;;;;;5118510;28;20069;-42
2020/12/10 09:27:47;;;;;;;41.38;18.10;;;0.50;69.90;;;;;;5118884;28;20055;-42
2020/12/10 09:30:13;;;;;;;43.80;16.88;;;0.40;69.70;;;;;;5118719;28;20138;-43
2020/12/10 09:32:40;;;;;;;35.47;16.58;;;0.40;69.80;;;;;;5118876;28;20122;-43
2020/12/10 09:35:09;;;;;;;40.83;18.85;;;0.50;69.80;;;;;;5118726;28;20051;-42
2020/12/10 09:37:39;;;;;;;41.70;16.85;;;0.40;69.90;;;;;;5118099;28;20031;-43
2020/12/10 09:40:07;;;;;;;37.38;17.25;;;0.40;69.90;;;;;;5119411;28;20023;-43
2020/12/10 09:42:37;;;;;;;38.92;16.83;;;0.40;69.80;;;;;;5118911;28;20019;-42
2020/12/10 09:45:04;;;;;;;34.88;16.15;;;0.40;69.90;;;;;;5119028;28;20035;-43
2020/12/10 09:47:29;;;;;;;35.15;16.75;;;0.40;69.90;;;;;;5118872;27;20027;-43
2020/12/10 09:49:55;;;;;;;43.83;19.35;;;0.40;69.80;;;;;;5118848;28;20142;-43
2020/12/10 09:52:22;;;;;;;43.00;18.55;;;0.40;69.80;;;;;;5118213;28;20042;-43
2020/12/10 09:57:45;;;;;;;44.28;17.48;;;0.40;70.10;;;;;;5083875;27;20377;-43
2020/12/10 10:00:11;;;;;;;36.92;18.00;;;0.30;70.10;;;;;;5118536;28;20028;-43
2020/12/10 10:02:37;;;;;;;44.13;19.75;;;0.30;70.10;;;;;;5118562;28;20545;-43
2020/12/10 10:05:03;;;;;;;43.13;20.15;;;0.30;70.10;;;;;;5118287;28;20031;-43
2020/12/10 10:07:28;;;;;;;40.05;17.90;;;0.30;70.10;;;;;;5118538;28;20314;-42
2020/12/10 10:09:54;;;;;;;43.88;19.52;;;0.30;70.40;;;;;;5118069;28;20034;-44
2020/12/10 10:12:20;;;;;;;38.85;19.60;;;0.30;70.40;;;;;;5117241;28;20510;-42
2020/12/10 10:14:48;;;;;;;43.38;20.17;;;0.30;70.30;;;;;;5117571;28;20405;-44
2020/12/10 10:17:15;;;;;;;44.08;20.98;;;0.30;70.30;;;;;;5115908;28;20085;-43
2020/12/10 10:19:41;;;;;;;60.88;28.67;;;0.20;70.20;;;;;;5117793;28;20026;-39
2020/12/10 10:22:06;;;;;;;55.17;29.08;;;0.20;70.30;;;;;;5117725;28;20337;-41
2020/12/10 10:24:33;;;;;;;56.97;28.63;;;0.20;70.40;;;;;;5117280;28;20026;-38
2020/12/10 10:26:59;;;;;;;46.20;27.42;;;0.20;70.50;;;;;;5116698;27;20027;-39
2020/12/10 10:29:25;;;;;;;44.17;21.35;;;0.20;70.60;;;;;;5109310;28;20118;-39
2020/12/10 10:31:52;;;;;;;50.70;23.80;;;0.20;70.60;;;;;;5102798;28;20155;-39
2020/12/10 10:34:19;;;;;;;44.50;21.95;;;0.20;70.60;;;;;;5108952;28;20031;-40
2020/12/10 10:36:45;;;;;;;42.63;20.38;;;0.20;70.50;;;;;;5118002;28;20031;-43
2020/12/10 10:39:11;;;;;;;47.50;23.85;;;0.20;70.50;;;;;;5117288;28;20032;-43
2020/12/10 10:41:45;;;;;;;46.80;22.88;;;0.20;70.60;;;;;;5117589;27;20034;-43
2020/12/10 10:44:10;;;;;;;41.25;19.33;;;0.20;70.50;;;;;;5114840;28;20084;-43
2020/12/10 10:46:36;;;;;;;48.60;21.85;;;0.20;70.40;;;;;;5116439;28;20031;-43
2020/12/10 10:49:03;;;;;;;46.13;20.98;;;0.20;70.50;;;;;;5115188;28;20038;-43
2020/12/10 10:51:29;;;;;;;41.65;20.48;;;0.20;70.60;;;;;;5109574;28;20122;-43
2020/12/10 10:53:55;;;;;;;41.35;20.15;;;0.20;70.80;;;;;;5115841;28;20105;-44
2020/12/10 10:56:23;;;;;;;44.28;20.88;;;0.20;70.90;;;;;;5116181;28;20072;-43
2020/12/10 10:58:49;;;;;;;45.38;19.35;;;0.20;70.90;;;;;;5116673;28;20122;-43
2020/12/10 11:01:15;;;;;;;48.38;20.75;;;0.20;70.90;;;;;;5115916;28;20027;-43
2020/12/10 11:03:41;;;;;;;41.80;19.20;;;0.20;70.90;;;;;;5115598;28;20122;-43
2020/12/10 11:06:08;;;;;;;43.50;19.35;;;0.20;70.90;;;;;;5117497;28;20051;-43
2020/12/10 11:08:34;;;;;;;42.33;18.75;;;0.20;70.80;;;;;;5116974;28;20028;-43
2020/12/10 11:11:00;;;;;;;38.58;19.33;;;0.20;70.70;;;;;;5116776;28;20034;-43
2020/12/10 11:13:26;;;;;;;43.25;19.15;;;0.20;70.80;;;;;;5115651;28;20429;-43
2020/12/10 11:15:51;;;;;;;44.97;20.30;;;0.20;70.70;;;;;;5116420;28;20437;-43
2020/12/10 11:18:17;;;;;;;45.10;21.25;;;0.20;70.80;;;;;;5116328;28;20024;-44
2020/12/10 11:20:43;;;;;;;49.55;21.33;;;0.20;70.70;;;;;;5117256;28;20351;-43
2020/12/10 11:23:09;;;;;;;37.40;18.58;;;0.20;70.70;;;;;;5117238;28;20043;-44
2020/12/10 11:25:34;;;;;;;39.72;18.00;;;0.20;70.70;;;;;;5115643;28;20351;-43
2020/12/10 11:28:00;;;;;;;36.50;17.00;;;0.20;70.70;;;;;;5115484;28;20027;-43
2020/12/10 11:30:26;;;;;;;34.65;17.67;;;0.20;70.60;;;;;;5116288;28;20051;-43
2020/12/10 11:32:52;;;;;;;44.30;18.27;;;0.20;70.60;;;;;;5114953;28;20433;-43
2020/12/10 11:35:17;;;;;;;34.90;16.45;;;0.20;70.60;;;;;;5097806;28;20100;-44
2020/12/10 11:37:43;;;;;;;39.08;19.52;;;0.20;70.70;;;;;;5094191;28;20028;-43
2020/12/10 11:40:09;;;;;;;36.55;17.98;;;0.20;71.40;;;;;;5095793;28;20325;-43
2020/12/10 11:42:34;;;;;;;39.45;18.70;;;0.20;70.90;;;;;;5096453;28;20024;-44
2020/12/10 11:45:03;;;;;;;40.33;19.15;;;0.20;70.90;;;;;;5096326;28;20032;-43
2020/12/10 11:47:29;;;;;;;39.17;19.30;;;0.30;70.90;;;;;;5096634;28;20089;-43
2020/12/10 11:49:55;;;;;;;38.97;18.83;;;0.20;70.70;;;;;;5094941;28;20426;-43
2020/12/10 11:52:20;;;;;;;43.80;18.05;;;0.20;70.50;;;;;;5102983;28;20051;-44
2020/12/10 11:54:46;;;;;;;44.35;19.63;;;0.20;70.40;;;;;;5111355;28;20020;-43
2020/12/10 11:57:12;;;;;;;40.47;18.38;;;0.20;70.60;;;;;;5116335;28;20063;-44
2020/12/10 11:59:38;;;;;;;40.38;18.30;;;0.20;70.70;;;;;;5116620;28;20348;-44
2020/12/10 12:02:07;;;;;;;40.90;18.38;;;0.10;70.70;;;;;;5119900;28;20038;-43
2020/12/10 12:04:32;;;;;;;36.58;17.00;;;0.20;71.00;;;;;;5118923;28;20019;-43
2020/12/10 12:07:00;;;;;;;41.65;18.77;;;0.10;70.90;;;;;;5119502;28;20027;-43
2020/12/10 12:09:26;;;;;;;37.83;18.55;;;0.10;70.90;;;;;;5119937;28;20023;-43
2020/12/10 12:11:51;;;;;;;40.08;18.40;;;0.10;70.90;;;;;;5119218;28;20039;-44
2020/12/10 12:14:17;;;;;;;48.70;22.15;;;0.10;71.00;;;;;;5116990;28;20457;-46
2020/12/10 12:16:47;;;;;;;36.95;18.73;;;0.10;71.10;;;;;;5119309;28;20034;-43
2020/12/10 12:19:14;;;;;;;44.80;19.55;;;0.10;71.30;;;;;;5119180;28;20345;-44
2020/12/10 12:21:40;;;;;;;42.17;18.08;;;0.10;71.40;;;;;;5119400;27;20039;-44
2020/12/10 12:24:06;;;;;;;49.10;20.02;;;0.10;71.30;;;;;;5119195;28;20027;-43
2020/12/10 12:26:33;;;;;;;40.28;18.13;;;0.20;71.20;;;;;;5117703;27;20096;-40
2020/12/10 12:28:59;;;;;;;45.67;19.83;;;0.10;71.30;;;;;;5115066;28;20027;-40
2020/12/10 12:31:32;;;;;;;41.65;19.48;;;0.20;71.60;;;;;;5114943;28;20055;-39
2020/12/10 12:33:58;;;;;;;53.85;21.48;;;0.20;71.60;;;;;;5114493;28;20031;-39
2020/12/10 12:36:24;;;;;;;40.47;19.35;;;0.20;71.60;;;;;;5118304;28;20034;-39
2020/12/10 12:38:49;;;;;;;41.78;19.10;;;0.20;71.40;;;;;;5118937;28;20055;-41